STATION HISTORICAL DATA FROM WUNDERGROUND.COM FOR HIGH PARK VILLAGE,TORONTO,ON,CANADA
 
Daily Summary for June 16, 2019 Units:  Metric    English   Both
Next Day »
Daily Weekly Monthly Yearly Custom
  Current: High: Low: Average:
Temperature: 15.4 °C 28.6 °C 12.9 °C 17.3 °C
Dew Point: 10.2 °C 13.6 °C 8.8 °C 10.4 °C
Humidity: 71% 83% 37% 65%
Wind Speed: 5.6km/h 7.4km/h 0km/h 0.6km/h
Wind Gust: 2.1km/h 3.9km/h - -
WindNNW - - WSW
Pressure: 1013.4 hPa 1013.4 hPa 1010 hPa -
Precipitation: 0 mm      
Historical Graphs
 
 
Tabular Data for June 16, 2019
Time Temperature Dew Point Pressure Wind Wind Speed Wind Gust Humidity Rainfall Rate (Hourly) Solar Conditions
00:04 16.3 °C 13 °C 1011.1 hPa NW 1.9 km/h 0.8 km/h 81% 0 mm 0.00 W/m2
00:09 16.2 °C 12.9 °C 1011.1 hPa NW 1.9 km/h 0.3 km/h 81% 0 mm 0.00 W/m2
00:14 16.2 °C 13.2 °C 1010.7 hPa NW 1.9 km/h   82% 0 mm 0.00 W/m2
00:19 16.2 °C 13.2 °C 1011.1 hPa NW 1.9 km/h 0.2 km/h 82% 0 mm 0.00 W/m2
00:24 16.3 °C 13.2 °C 1011.1 hPa Calm     82% 0 mm 0.00 W/m2
00:29 16.3 °C 13.2 °C 1011.1 hPa Calm     82% 0 mm 0.00 W/m2
00:34 16.4 °C 13.5 °C 1011.1 hPa Calm     83% 0 mm 0.00 W/m2
00:39 16.4 °C 13.5 °C 1011.1 hPa Calm     83% 0 mm 0.00 W/m2
00:44 16.4 °C 13.6 °C 1011.1 hPa NNW 4.8 km/h 0.3 km/h 83% 0 mm 0.00 W/m2
00:49 16.3 °C 13.4 °C 1011.1 hPa West 1.9 km/h 0.2 km/h 83% 0 mm 0.00 W/m2
00:54 16.3 °C 13.4 °C 1011.1 hPa NNW 1.9 km/h 0.2 km/h 83% 0 mm 0.00 W/m2
00:59 16.3 °C 13.4 °C 1011.1 hPa Calm     83% 0 mm 0.00 W/m2
01:04 16.2 °C 13.3 °C 1011.1 hPa Calm     83% 0 mm 0.00 W/m2
01:09 16.3 °C 13.4 °C 1011.1 hPa Calm     83% 0 mm 0.00 W/m2
01:14 16.3 °C 13.4 °C 1011.1 hPa NW 1.9 km/h 0.2 km/h 83% 0 mm 0.00 W/m2
01:19 16.3 °C 13.4 °C 1011.1 hPa Calm     83% 0 mm 0.00 W/m2
01:24 16.3 °C 13.4 °C 1011.1 hPa Calm     83% 0 mm 0.00 W/m2
01:29 16.2 °C 13.3 °C 1011.1 hPa Calm     83% 0 mm 0.00 W/m2
01:34 16.2 °C 13.3 °C 1011.1 hPa Calm     83% 0 mm 0.00 W/m2
01:39 16.2 °C 13.3 °C 1011.1 hPa Calm     83% 0 mm 0.00 W/m2
01:44 16.2 °C 13.3 °C 1011.1 hPa Calm     83% 0 mm 0.00 W/m2
01:49 16.2 °C 13.3 °C 1010.7 hPa Calm     83% 0 mm 0.00 W/m2
01:54 16.1 °C 13.2 °C 1010.7 hPa Calm     83% 0 mm 0.00 W/m2
01:59 16 °C 12.9 °C 1010.7 hPa Calm     82% 0 mm 0.00 W/m2
02:04 15.9 °C 12.9 °C 1010.7 hPa Calm     82% 0 mm 0.00 W/m2
02:09 15.8 °C 12.6 °C 1011.1 hPa Calm     81% 0 mm 0.00 W/m2
02:14 15.8 °C 12.6 °C 1010.7 hPa Calm     81% 0 mm 0.00 W/m2
02:19 15.8 °C 12.6 °C 1010.7 hPa Calm     81% 0 mm 0.00 W/m2
02:24 15.8 °C 12.3 °C 1010.7 hPa Calm     80% 0 mm 0.00 W/m2
02:29 15.8 °C 12.3 °C 1010.7 hPa Calm     80% 0 mm 0.00 W/m2
02:34 15.7 °C 12.3 °C 1010.7 hPa Calm     80% 0 mm 0.00 W/m2
02:39 15.7 °C 12.1 °C 1010.7 hPa Calm   0.5 km/h 79% 0 mm 0.00 W/m2
02:44 15.6 °C 12 °C 1010.7 hPa Calm     79% 0 mm 0.00 W/m2
02:49 15.6 °C 11.9 °C 1010.7 hPa Calm     79% 0 mm 0.00 W/m2
02:54 15.6 °C 11.7 °C 1010.7 hPa Calm     78% 0 mm 0.00 W/m2
02:59 15.5 °C 11.7 °C 1010.7 hPa Calm     78% 0 mm 0.00 W/m2
03:04 15.4 °C 11.4 °C 1010.4 hPa Calm     77% 0 mm 0.00 W/m2
03:09 15.4 °C 11.4 °C 1010.7 hPa Calm     77% 0 mm 0.00 W/m2
03:14 15.3 °C 11.1 °C 1010.7 hPa Calm     76% 0 mm 0.00 W/m2
03:19 15.3 °C 11.1 °C 1010.7 hPa Calm     76% 0 mm 0.00 W/m2
03:24 15.3 °C 10.9 °C 1010.7 hPa Calm     75% 0 mm 0.00 W/m2
03:29 15.2 °C 10.8 °C 1010.7 hPa Calm     75% 0 mm 0.00 W/m2
03:34 15.2 °C 10.6 °C 1010.7 hPa Calm     74% 0 mm 0.00 W/m2
03:39 15.1 °C 10.4 °C 1010.7 hPa Calm     74% 0 mm 0.00 W/m2
03:44 14.9 °C 10.3 °C 1010.7 hPa WNW 1.9 km/h 0.3 km/h 74% 0 mm 0.00 W/m2
03:49 14.7 °C 9.9 °C 1010.7 hPa WNW 1.9 km/h 0.3 km/h 73% 0 mm 0.00 W/m2
03:54 14.5 °C 9.7 °C 1010.7 hPa NW 1.9 km/h 1.4 km/h 73% 0 mm 0.00 W/m2
03:59 14.3 °C 9.6 °C 1010.4 hPa NW 1.9 km/h   73% 0 mm 0.00 W/m2
04:04 14.3 °C 9.5 °C 1010.4 hPa Calm   0.6 km/h 73% 0 mm 0.00 W/m2
04:09 14.2 °C 9.4 °C 1010.4 hPa NW 1.9 km/h 0.2 km/h 73% 0 mm 0.00 W/m2
04:14 14 °C 9.2 °C 1010.4 hPa NW 1.9 km/h 0.8 km/h 73% 0 mm 0.00 W/m2
04:19 13.8 °C 9.1 °C 1010.4 hPa NNW 2.4 km/h 0.2 km/h 73% 0 mm 0.00 W/m2
04:24 13.8 °C 9.1 °C 1010.4 hPa NW 1.9 km/h 0.2 km/h 73% 0 mm 0.00 W/m2
04:29 13.7 °C 8.9 °C 1010.4 hPa Calm   1 km/h 73% 0 mm 0.00 W/m2
04:34 13.6 °C 8.9 °C 1010.4 hPa NW 2.4 km/h 0.2 km/h 73% 0 mm 0.00 W/m2
04:39 13.6 °C 8.8 °C 1010.4 hPa NW 1.9 km/h 0.5 km/h 73% 0 mm 0.00 W/m2
04:44 13.5 °C 8.8 °C 1010.4 hPa Calm     73% 0 mm 0.00 W/m2
04:49 13.4 °C 8.9 °C 1010.4 hPa Calm     74% 0 mm 0.00 W/m2
04:54 13.4 °C 8.8 °C 1010.4 hPa Calm     74% 0 mm 0.00 W/m2
04:59 13.4 °C 8.8 °C 1010 hPa Calm     74% 0 mm 0.00 W/m2
05:04 13.3 °C 8.8 °C 1010 hPa Calm     74% 0 mm 0.00 W/m2
05:09 13.3 °C 9 °C 1010.4 hPa Calm     75% 0 mm 0.00 W/m2 CLR
05:14 13.3 °C 9 °C 1010.4 hPa Calm     75% 0 mm 0.00 W/m2 CLR
05:19 13.3 °C 8.9 °C 1010.4 hPa Calm     75% 0 mm 0.00 W/m2 CLR
05:24 13.2 °C 8.9 °C 1010.4 hPa Calm   0.5 km/h 75% 0 mm 0.00 W/m2 CLR
05:29 13.2 °C 8.8 °C 1010.4 hPa WNW 1.9 km/h 0.2 km/h 75% 0 mm 0.00 W/m2 CLR
05:34 13.1 °C 8.9 °C 1010.4 hPa WNW 1.9 km/h 0.2 km/h 76% 0 mm 0.00 W/m2 CLR
05:39 13 °C 8.9 °C 1010.4 hPa Calm     76% 0 mm 0.00 W/m2 CLR
05:44 12.9 °C 8.8 °C 1010.4 hPa Calm     76% 0 mm 0.00 W/m2 CLR
05:49 12.9 °C 9 °C 1010 hPa Calm     77% 0 mm 0.00 W/m2 CLR
05:54 12.9 °C 9 °C 1010.4 hPa Calm   0.2 km/h 77% 0 mm 0.00 W/m2 CLR
05:59 12.9 °C 9 °C 1010.4 hPa Calm     77% 0 mm 0.00 W/m2 CLR
06:04 13 °C 9.1 °C 1010.4 hPa Calm     77% 0 mm 5.00 W/m2 CLR
06:09 12.9 °C 9 °C 1010.4 hPa Calm     77% 0 mm 7.00 W/m2 CLR
06:14 13 °C 9.1 °C 1010.7 hPa Calm     77% 0 mm 7.00 W/m2 CLR
06:19 13 °C 9.1 °C 1010.4 hPa Calm   0.2 km/h 77% 0 mm 9.00 W/m2 CLR
06:24 13 °C 9.1 °C 1010.4 hPa WNW 1.9 km/h   77% 0 mm 11.00 W/m2 CLR
06:29 13.1 °C 9.1 °C 1010.4 hPa Calm     77% 0 mm 11.00 W/m2 CLR
06:34 13.1 °C 9.1 °C 1010.4 hPa Calm     77% 0 mm 11.00 W/m2 CLR
06:39 13.1 °C 9.2 °C 1010.7 hPa Calm     77% 0 mm 12.00 W/m2 CLR
06:44 13.2 °C 9.2 °C 1010.7 hPa Calm     77% 0 mm 12.00 W/m2 CLR
06:49 13.2 °C 9.3 °C 1010.7 hPa South 2.4 km/h 0.3 km/h 77% 0 mm 14.00 W/m2 CLR
06:54 13.3 °C 9.2 °C 1010.7 hPa Calm     76% 0 mm 14.00 W/m2 CLR
06:59 13.3 °C 9.2 °C 1010.7 hPa Calm     76% 0 mm 9.00 W/m2 CLR
07:04 13.4 °C 9.3 °C 1010.7 hPa Calm     76% 0 mm 14.00 W/m2 OVC
07:09 13.5 °C 9.3 °C 1011.1 hPa Calm     76% 0 mm 16.00 W/m2 OVC
07:14 13.6 °C 9.2 °C 1010.7 hPa Calm     75% 0 mm 18.00 W/m2 OVC
07:19 13.7 °C 9.3 °C 1010.7 hPa Calm     75% 0 mm 18.00 W/m2 OVC
07:24 13.8 °C 9.4 °C 1010.7 hPa Calm     75% 0 mm 19.00 W/m2 OVC
07:29 13.9 °C 9.6 °C 1011.1 hPa Calm     75% 0 mm 19.00 W/m2 OVC
07:34 14 °C 9.4 °C 1010.7 hPa Calm     74% 0 mm 21.00 W/m2 OVC
07:39 14.2 °C 9.6 °C 1010.7 hPa Calm     74% 0 mm 21.00 W/m2 OVC
07:44 14.3 °C 9.7 °C 1010.7 hPa Calm     74% 0 mm 21.00 W/m2 OVC
07:49 14.4 °C 9.7 °C 1010.4 hPa Calm     73% 0 mm 21.00 W/m2 OVC
07:54 14.6 °C 9.8 °C 1010.4 hPa Calm     73% 0 mm 21.00 W/m2 OVC
07:59 14.8 °C 9.8 °C 1010.4 hPa Calm     72% 0 mm 23.00 W/m2 OVC
08:04 14.9 °C 9.9 °C 1010.4 hPa Calm     72% 0 mm 21.00 W/m2 OVC
08:09 15.1 °C 9.9 °C 1010.4 hPa Calm     71% 0 mm 21.00 W/m2 OVC
08:14 15.3 °C 10.1 °C 1010.7 hPa Calm     71% 0 mm 23.00 W/m2 OVC
08:19 15.4 °C 10 °C 1010.7 hPa SSW 1.9 km/h 0.2 km/h 70% 0 mm 25.00 W/m2 OVC
08:24 15.6 °C 9.9 °C 1010.7 hPa Calm     69% 0 mm 26.00 W/m2 OVC
08:29 15.7 °C 10 °C 1010.7 hPa Calm     69% 0 mm 26.00 W/m2 OVC
08:34 15.8 °C 10.2 °C 1010.7 hPa Calm     69% 0 mm 25.00 W/m2 OVC
08:39 15.9 °C 10.1 °C 1010.7 hPa SSW 1.9 km/h 0.2 km/h 68% 0 mm 26.00 W/m2 OVC
08:44 16.1 °C 9.9 °C 1010.7 hPa Calm     67% 0 mm 28.00 W/m2 OVC
08:49 16.2 °C 9.9 °C 1011.1 hPa Calm     66% 0 mm 33.00 W/m2 OVC
08:54 16.3 °C 10 °C 1011.1 hPa Calm     66% 0 mm 30.00 W/m2 OVC
08:59 16.4 °C 10.1 °C 1011.1 hPa Calm     66% 0 mm 28.00 W/m2 OVC
09:04 16.6 °C 10.2 °C 1011.1 hPa Calm     66% 0 mm 42.00 W/m2 OVC
09:09 16.7 °C 10.1 °C 1011.4 hPa Calm     65% 0 mm 49.00 W/m2 OVC
09:14 16.9 °C 10.1 °C 1011.1 hPa Calm     64% 0 mm 49.00 W/m2 OVC
09:19 17 °C 10.2 °C 1011.1 hPa Calm     64% 0 mm 49.00 W/m2 OVC
09:24 17.2 °C 9.8 °C 1011.1 hPa Calm     62% 0 mm 42.00 W/m2 OVC
09:29 17.3 °C 9.7 °C 1011.1 hPa Calm     61% 0 mm 47.00 W/m2 OVC
09:34 17.4 °C 9.8 °C 1011.1 hPa Calm     61% 0 mm 49.00 W/m2 OVC
09:39 17.6 °C 10 °C 1011.1 hPa Calm     61% 0 mm 51.00 W/m2 OVC
09:44 17.7 °C 9.9 °C 1011.1 hPa Calm     60% 0 mm 46.00 W/m2 OVC
09:49 17.8 °C 9.7 °C 1011.1 hPa Calm     59% 0 mm 49.00 W/m2 OVC
09:54 17.9 °C 9.6 °C 1011.1 hPa Calm     58% 0 mm 77.00 W/m2 OVC
09:59 18.1 °C 9.7 °C 1011.1 hPa Calm     58% 0 mm 91.00 W/m2 OVC
10:04 18.2 °C 10.1 °C 1011.1 hPa Calm     59% 0 mm 98.00 W/m2 OVC
10:09 18.3 °C 9.9 °C 1011.1 hPa SW 2.4 km/h 3.2 km/h 58% 0 mm 104.00 W/m2 OVC
10:14 18.4 °C 9.8 °C 1011.4 hPa Calm     57% 0 mm 98.00 W/m2 OVC
10:19 18.6 °C 9.9 °C 1011.4 hPa Calm     57% 0 mm 88.00 W/m2 OVC
10:24 18.7 °C 10 °C 1011.4 hPa Calm   0.2 km/h 57% 0 mm 77.00 W/m2 OVC
10:29 18.8 °C 9.6 °C 1011.7 hPa Calm     55% 0 mm 81.00 W/m2 OVC
10:34 18.8 °C 9.9 °C 1011.4 hPa Calm     56% 0 mm 88.00 W/m2 OVC
10:39 18.9 °C 10 °C 1011.4 hPa Calm     56% 0 mm 95.00 W/m2 OVC
10:44 19 °C 9.8 °C 1011.4 hPa Calm     55% 0 mm 88.00 W/m2 OVC
10:49 19.1 °C 9.9 °C 1011.4 hPa Calm     55% 0 mm 86.00 W/m2 OVC
10:54 19.2 °C 9.7 °C 1011.4 hPa Calm     54% 0 mm 93.00 W/m2 OVC
10:59 19.3 °C 9.4 °C 1011.4 hPa Calm     53% 0 mm 98.00 W/m2 OVC
11:04 19.4 °C 9.6 °C 1011.4 hPa Calm     53% 0 mm 116.00 W/m2 OVC
11:09 19.4 °C 9.6 °C 1011.1 hPa Calm     53% 0 mm 142.00 W/m2 OVC
11:14 19.6 °C 9.4 °C 1011.1 hPa Calm     52% 0 mm 120.00 W/m2 OVC
11:19 19.7 °C 9.6 °C 1011.1 hPa Calm     52% 0 mm 113.00 W/m2 OVC
11:24 19.7 °C 9.6 °C 1011.1 hPa Calm     52% 0 mm 121.00 W/m2 OVC
11:29 19.8 °C 9.7 °C 1011.1 hPa Calm     52% 0 mm 132.00 W/m2 OVC
11:34 19.8 °C 9.7 °C 1011.1 hPa Calm     52% 0 mm 137.00 W/m2 OVC
11:39 19.9 °C 9.7 °C 1011.1 hPa Calm     52% 0 mm 137.00 W/m2 OVC
11:44 19.9 °C 9.5 °C 1011.1 hPa Calm     51% 0 mm 144.00 W/m2 OVC
11:49 20.1 °C 9.6 °C 1011.1 hPa Calm     51% 0 mm 148.00 W/m2 OVC
11:51 18.8 °C 10.1 °C 1011.7 hPa Calm   3.2 km/h 57% 0 mm 0.00 W/m2 OVC
11:54 20.1 °C 9.6 °C 1011.1 hPa SW 1.9 km/h   51% 0 mm 151.00 W/m2 OVC
11:56 18.7 °C 10 °C 1011.7 hPa Calm   3.2 km/h 57% 0 mm 0.00 W/m2 OVC
11:59 20.1 °C 9.7 °C 1011.4 hPa Calm     51% 0 mm 149.00 W/m2 OVC
12:04 20.1 °C 9.7 °C 1011.4 hPa Calm     51% 0 mm 151.00 W/m2 OVC
12:09 20.2 °C 9.7 °C 1011.4 hPa Calm     51% 0 mm 155.00 W/m2 OVC
12:14 20.2 °C 10.1 °C 1011.4 hPa Calm   0.2 km/h 52% 0 mm 156.00 W/m2 OVC
12:19 20.2 °C 10.1 °C 1011.4 hPa Calm     52% 0 mm 153.00 W/m2 OVC
12:24 20.3 °C 10.1 °C 1011.4 hPa Calm     52% 0 mm 134.00 W/m2 OVC
12:29 20.3 °C 10.2 °C 1011.4 hPa Calm     52% 0 mm 130.00 W/m2 OVC
12:34 20.4 °C 9.9 °C 1011.4 hPa SSW 1.9 km/h 0.2 km/h 51% 0 mm 155.00 W/m2 OVC
12:39 20.4 °C 9.9 °C 1011.4 hPa SSW 1.9 km/h 0.3 km/h 51% 0 mm 158.00 W/m2 OVC
12:44 20.4 °C 9.9 °C 1011.4 hPa Calm     51% 0 mm 146.00 W/m2 OVC
12:49 20.3 °C 10.2 °C 1011.1 hPa Calm     52% 0 mm 142.00 W/m2 OVC
12:54 20.3 °C 10.4 °C 1011.1 hPa South 5.6 km/h 0.8 km/h 53% 0 mm 135.00 W/m2 OVC
12:59 20.2 °C 10.3 °C 1011.1 hPa SSW 2.4 km/h 1 km/h 53% 0 mm 130.00 W/m2 OVC
13:04 19.9 °C 10.3 °C 1011.1 hPa Calm     54% 0 mm 128.00 W/m2 OVC
13:09 19.7 °C 10.4 °C 1011.1 hPa South 2.4 km/h 1.4 km/h 55% 0 mm 132.00 W/m2 OVC
13:14 19.3 °C 10.3 °C 1011.1 hPa South 1.9 km/h 0.2 km/h 56% 0 mm 134.00 W/m2 OVC
13:19 19 °C 10.3 °C 1011.1 hPa South 1.9 km/h 0.5 km/h 57% 0 mm 132.00 W/m2 OVC
13:24 18.7 °C 10.5 °C 1011.1 hPa Calm     59% 0 mm 123.00 W/m2 OVC
13:29 18.3 °C 10.4 °C 1011.4 hPa Calm   0.2 km/h 60% 0 mm 121.00 W/m2 OVC
13:34 17.9 °C 10.3 °C 1011.4 hPa South 1.9 km/h 0.3 km/h 61% 0 mm 120.00 W/m2 OVC
13:39 17.6 °C 10.3 °C 1011.4 hPa South 2.4 km/h 1.4 km/h 62% 0 mm 118.00 W/m2 OVC
13:44 17.2 °C 10.1 °C 1011.4 hPa South 2.4 km/h 0.8 km/h 63% 0 mm 120.00 W/m2 OVC
13:49 16.8 °C 10 °C 1011.4 hPa SSW 2.4 km/h 1.1 km/h 64% 0 mm 116.00 W/m2 OVC
13:54 16.6 °C 10.2 °C 1011.4 hPa Calm     66% 0 mm 114.00 W/m2 OVC
13:59 16.4 °C 10.3 °C 1011.4 hPa SSW 1.9 km/h 0.3 km/h 67% 0 mm 121.00 W/m2 OVC
14:04 16.4 °C 10.3 °C 1011.4 hPa Calm     67% 0 mm 127.00 W/m2 OVC
14:09 16.3 °C 10.4 °C 1011.4 hPa South 1.9 km/h 1.1 km/h 68% 0 mm 130.00 W/m2 OVC
14:14 16.3 °C 10.4 °C 1011.4 hPa Calm     68% 0 mm 153.00 W/m2 OVC
14:19 16.3 °C 10.4 °C 1011.7 hPa Calm     68% 0 mm 211.00 W/m2 OVC
14:24 16.3 °C 10.4 °C 1011.7 hPa SSW 1.9 km/h 0.2 km/h 68% 0 mm 176.00 W/m2 OVC
14:29 16.4 °C 10.7 °C 1011.7 hPa Calm     69% 0 mm 113.00 W/m2 OVC
14:34 16.6 °C 10.6 °C 1011.7 hPa SSW 1.9 km/h 0.2 km/h 68% 0 mm 111.00 W/m2 OVC
14:39 16.7 °C 10.5 °C 1011.7 hPa Calm     67% 0 mm 116.00 W/m2 OVC
14:44 16.7 °C 10.6 °C 1011.7 hPa South 1.9 km/h 0.5 km/h 67% 0 mm 121.00 W/m2 OVC
14:49 16.7 °C 10.3 °C 1011.7 hPa South 1.9 km/h   66% 0 mm 174.00 W/m2 OVC
14:54 16.7 °C 10.6 °C 1011.7 hPa Calm     67% 0 mm 158.00 W/m2 OVC
14:59 16.8 °C 10.6 °C 1011.7 hPa Calm     67% 0 mm 121.00 W/m2 OVC
15:04 16.8 °C 10.4 °C 1011.7 hPa Calm     66% 0 mm 105.00 W/m2 OVC
15:09 16.9 °C 10.3 °C 1011.7 hPa Calm     65% 0 mm 102.00 W/m2 OVC
15:14 17 °C 10.4 °C 1012.1 hPa South 1.9 km/h   65% 0 mm 93.00 W/m2 OVC
15:19 16.9 °C 9.8 °C 1012.1 hPa Calm     63% 0 mm 70.00 W/m2 OVC
15:24 16.9 °C 9.8 °C 1011.7 hPa Calm     63% 0 mm 77.00 W/m2 OVC
15:29 16.8 °C 9.8 °C 1012.1 hPa Calm     63% 0 mm 79.00 W/m2 OVC
15:34 16.8 °C 10 °C 1011.7 hPa Calm   0.2 km/h 64% 0 mm 76.00 W/m2 OVC
15:39 16.8 °C 10 °C 1011.7 hPa Calm     64% 0 mm 74.00 W/m2 OVC
15:44 16.9 °C 10.3 °C 1011.7 hPa Calm     65% 0 mm 84.00 W/m2 OVC
15:49 16.9 °C 10.3 °C 1012.1 hPa Calm     65% 0 mm 88.00 W/m2 OVC
15:54 17 °C 10.4 °C 1012.1 hPa Calm     65% 0 mm 90.00 W/m2 OVC
15:59 17.1 °C 10.3 °C 1011.7 hPa Calm     64% 0 mm 102.00 W/m2 OVC
16:04 17.2 °C 10.3 °C 1011.7 hPa Calm     64% 0 mm 120.00 W/m2 OVC
16:09 17.3 °C 10.2 °C 1011.7 hPa Calm     63% 0 mm 120.00 W/m2 OVC
16:14 17.4 °C 10.3 °C 1011.7 hPa Calm     63% 0 mm 179.00 W/m2 OVC
16:19 17.6 °C 10.2 °C 1011.7 hPa Calm     62% 0 mm 137.00 W/m2 OVC
16:24 17.7 °C 10.3 °C 1011.7 hPa Calm     62% 0 mm 128.00 W/m2 OVC
16:29 17.8 °C 10.4 °C 1011.7 hPa Calm     62% 0 mm 135.00 W/m2 OVC
16:34 17.9 °C 10.6 °C 1011.7 hPa Calm     62% 0 mm 134.00 W/m2 OVC
16:39 18.1 °C 10.7 °C 1012.1 hPa Calm     62% 0 mm 118.00 W/m2 OVC
16:44 18.3 °C 10.6 °C 1012.1 hPa Calm     61% 0 mm 134.00 W/m2 OVC
16:49 18.5 °C 10.6 °C 1012.1 hPa Calm     60% 0 mm 156.00 W/m2 OVC
16:54 19.3 °C 10.8 °C 1012.1 hPa Calm     58% 0 mm 178.00 W/m2 OVC
16:59 19.6 °C 11.1 °C 1012.1 hPa South 1.9 km/h   58% 0 mm 308.00 W/m2 OVC
17:04 19.9 °C 11.2 °C 1012.1 hPa Calm     57% 0 mm 156.00 W/m2 OVC
17:09 19.7 °C 10.7 °C 1012.1 hPa Calm     56% 0 mm 134.00 W/m2 OVC
17:14 19.6 °C 10.6 °C 1012.1 hPa Calm     56% 0 mm 121.00 W/m2 OVC
17:19 19.4 °C 10.4 °C 1012.1 hPa Calm     56% 0 mm 211.00 W/m2 OVC
17:24 19.8 °C 10.8 °C 1012.1 hPa Calm     56% 0 mm 441.00 W/m2 OVC
17:29 21.7 °C 11.7 °C 1012.1 hPa Calm     53% 0 mm 571.00 W/m2 OVC
17:34 23.3 °C 12 °C 1011.7 hPa Calm     49% 0 mm 540.00 W/m2 OVC
17:39 24.2 °C 11.9 °C 1011.7 hPa Calm     46% 0 mm 520.00 W/m2 OVC
17:44 23.8 °C 11.2 °C 1011.7 hPa Calm     45% 0 mm 504.00 W/m2 OVC
17:49 24.1 °C 11.8 °C 1011.7 hPa Calm     46% 0 mm 489.00 W/m2 OVC
17:54 26.2 °C 12.3 °C 1011.7 hPa Calm     42% 0 mm 478.00 W/m2 OVC
17:59 26.9 °C 12.6 °C 1011.7 hPa Calm     41% 0 mm 429.00 W/m2 OVC
18:04 27 °C 11.9 °C 1011.7 hPa Calm   0.2 km/h 39% 0 mm 448.00 W/m2 OVC
18:09 25.7 °C 11.8 °C 1011.7 hPa Calm     42% 0 mm 432.00 W/m2 OVC
18:14 26 °C 11.7 °C 1012.1 hPa Calm     41% 0 mm 417.00 W/m2 OVC
18:19 25.8 °C 11.6 °C 1012.1 hPa Calm   0.2 km/h 41% 0 mm 401.00 W/m2 OVC
18:24 25.6 °C 12.1 °C 1012.1 hPa Calm     43% 0 mm 388.00 W/m2 OVC
18:29 27.5 °C 12.7 °C 1012.1 hPa Calm     40% 0 mm 371.00 W/m2 OVC
18:34 27.7 °C 12.5 °C 1012.1 hPa Calm     39% 0 mm 357.00 W/m2 OVC
18:39 28.6 °C 12.9 °C 1011.7 hPa Calm     38% 0 mm 339.00 W/m2 OVC
18:44 28.1 °C 12.1 °C 1011.7 hPa SSW 1.9 km/h 0.5 km/h 37% 0 mm 322.00 W/m2 OVC
18:49 26.1 °C 11.4 °C 1011.7 hPa SSW 1.9 km/h   40% 0 mm 74.00 W/m2 OVC
18:54 25.9 °C 11.6 °C 1011.7 hPa Calm   0.2 km/h 41% 0 mm 33.00 W/m2 OVC
18:59 25.8 °C 11.6 °C 1011.7 hPa Calm     41% 0 mm 28.00 W/m2 OVC
19:04 25.1 °C 10.9 °C 1011.7 hPa SSW 1.9 km/h 0.8 km/h 41% 0 mm 46.00 W/m2 OVC
19:09 23.2 °C 10.2 °C 1011.7 hPa SSW 2.4 km/h 2.4 km/h 44% 0 mm 65.00 W/m2 OVC
19:14 21.9 °C 10.1 °C 1011.7 hPa SSW 2.4 km/h 0.8 km/h 47% 0 mm 56.00 W/m2 OVC
19:19 21.3 °C 9.9 °C 1011.7 hPa South 5.6 km/h 1.1 km/h 48% 0 mm 47.00 W/m2 OVC
19:24 20.8 °C 10.1 °C 1011.7 hPa South 2.4 km/h 1 km/h 50% 0 mm 51.00 W/m2 OVC
19:29 20.3 °C 9.9 °C 1011.7 hPa South 2.4 km/h 1.3 km/h 51% 0 mm 49.00 W/m2 OVC
19:34 19.9 °C 9.7 °C 1011.7 hPa South 1.9 km/h   52% 0 mm 46.00 W/m2 OVC
19:39 19.6 °C 10 °C 1011.7 hPa South 1.9 km/h 0.6 km/h 54% 0 mm 46.00 W/m2 OVC
19:44 19.3 °C 9.8 °C 1011.7 hPa SW 1.9 km/h 0.3 km/h 54% 0 mm 37.00 W/m2 OVC
19:48 19.1 °C 9.9 °C 1011.7 hPa SSW 1.9 km/h 0.2 km/h 55% 0 mm 30.00 W/m2 OVC
20:04 18.7 °C 10 °C 1011.7 hPa SSW 1.9 km/h 3.5 km/h 57% 0 mm 26.00 W/m2 CLR
20:09 18.6 °C 9.9 °C 1011.7 hPa SSW 2.4 km/h 0.6 km/h 57% 0 mm 21.00 W/m2 CLR
20:14 18.4 °C 9.8 °C 1011.7 hPa SSW 1.9 km/h 0.3 km/h 57% 0 mm 14.00 W/m2 CLR
20:19 18.3 °C 9.9 °C 1011.7 hPa SSW 1.9 km/h 0.5 km/h 58% 0 mm 14.00 W/m2 CLR
20:24 18.1 °C 9.7 °C 1011.7 hPa South 1.9 km/h 1 km/h 58% 0 mm 14.00 W/m2 CLR
20:29 17.9 °C 9.8 °C 1011.7 hPa South 1.9 km/h 0.2 km/h 59% 0 mm 9.00 W/m2 CLR
20:34 17.8 °C 9.7 °C 1011.7 hPa South 2.4 km/h 0.2 km/h 59% 0 mm 7.00 W/m2 CLR
20:39 17.6 °C 9.8 °C 1012.1 hPa Calm     60% 0 mm 5.00 W/m2 CLR
20:44 17.5 °C 9.7 °C 1012.1 hPa Calm     60% 0 mm 0.00 W/m2 CLR
20:49 17.4 °C 9.6 °C 1012.1 hPa Calm     60% 0 mm 0.00 W/m2 CLR
20:54 17.3 °C 9.5 °C 1012.1 hPa South 1.9 km/h 0.2 km/h 60% 0 mm 0.00 W/m2 CLR
20:59 17.2 °C 9.4 °C 1012.1 hPa Calm     60% 0 mm 0.00 W/m2 CLR
21:04 17.2 °C 9.1 °C 1012.1 hPa Calm     59% 0 mm 0.00 W/m2 CLR
21:09 17.2 °C 9.3 °C 1012.1 hPa South 1.9 km/h   60% 0 mm 0.00 W/m2 CLR
21:14 17.2 °C 9.3 °C 1012.1 hPa Calm     60% 0 mm 0.00 W/m2 CLR
21:19 17.1 °C 9.3 °C 1012.1 hPa Calm     60% 0 mm 0.00 W/m2 CLR
21:24 17.1 °C 9.6 °C 1012.4 hPa Calm     61% 0 mm 0.00 W/m2 CLR
21:29 17.1 °C 9.6 °C 1012.4 hPa Calm     61% 0 mm 0.00 W/m2 CLR
21:34 17.1 °C 9.6 °C 1012.4 hPa Calm     61% 0 mm 0.00 W/m2 CLR
21:39 17.1 °C 9.8 °C 1012.4 hPa Calm     62% 0 mm 0.00 W/m2
21:44 17.1 °C 10 °C 1012.8 hPa Calm     63% 0 mm 0.00 W/m2
21:49 17.1 °C 9.9 °C 1012.8 hPa Calm     63% 0 mm 0.00 W/m2
21:54 17 °C 9.9 °C 1012.8 hPa Calm     63% 0 mm 0.00 W/m2
21:59 16.8 °C 9.8 °C 1013.1 hPa South 5.6 km/h 1 km/h 63% 0 mm 0.00 W/m2
22:04 16.7 °C 9.6 °C 1013.1 hPa Calm     63% 0 mm 0.00 W/m2
22:09 16.6 °C 9.6 °C 1013.1 hPa Calm     63% 0 mm 0.00 W/m2
22:14 16.5 °C 9.4 °C 1013.4 hPa NNW 1.9 km/h   63% 0 mm 0.00 W/m2
22:19 16.3 °C 9.5 °C 1013.4 hPa Calm     64% 0 mm 0.00 W/m2
22:24 16.3 °C 9.4 °C 1013.4 hPa Calm     64% 0 mm 0.00 W/m2
22:29 16.3 °C 9.4 °C 1013.1 hPa Calm     64% 0 mm 0.00 W/m2
22:34 16.2 °C 9.4 °C 1013.1 hPa Calm     64% 0 mm 0.00 W/m2
22:39 16.2 °C 9.4 °C 1013.4 hPa Calm     64% 0 mm 0.00 W/m2
22:44 16.3 °C 9.4 °C 1013.4 hPa Calm     64% 0 mm 0.00 W/m2
22:49 16.3 °C 9.7 °C 1013.4 hPa Calm     65% 0 mm 0.00 W/m2
22:54 16.3 °C 9.4 °C 1013.4 hPa Calm     64% 0 mm 0.00 W/m2
22:59 16.3 °C 9.4 °C 1013.4 hPa Calm     64% 0 mm 0.00 W/m2
23:04 16.3 °C 9.4 °C 1013.4 hPa Calm     64% 0 mm 0.00 W/m2
23:09 16.3 °C 9.4 °C 1013.4 hPa Calm     64% 0 mm 0.00 W/m2
23:14 16.3 °C 9.5 °C 1013.4 hPa Calm     64% 0 mm 0.00 W/m2
23:19 16.3 °C 9.5 °C 1013.4 hPa Calm     64% 0 mm 0.00 W/m2
23:24 16.3 °C 9.7 °C 1013.4 hPa NNW 1.9 km/h 0.5 km/h 65% 0 mm 0.00 W/m2
23:29 16.3 °C 9.7 °C 1013.4 hPa Calm   0.3 km/h 65% 0 mm 0.00 W/m2
23:34 16.3 °C 10.2 °C 1013.4 hPa NNW 7.4 km/h 3.1 km/h 67% 0 mm 0.00 W/m2
23:39 16.1 °C 10.2 °C 1013.4 hPa NNW 5.6 km/h 3.9 km/h 68% 0 mm 0.00 W/m2
23:44 15.8 °C 10.2 °C 1013.4 hPa NNW 5.6 km/h 1.9 km/h 69% 0 mm 0.00 W/m2
23:49 15.6 °C 10.2 °C 1013.4 hPa NNW 5.6 km/h 1 km/h 70% 0 mm 0.00 W/m2
23:54 15.4 °C 10.2 °C 1013.4 hPa NNW 5.6 km/h 2.1 km/h 71% 0 mm 0.00 W/m2
High Park Village Arhives